PWSweather.com
Personal Weather Stations
Station Observations
RTINEZ
TerrassaES 08226

TerrassaES 08226

Lat: 41.5762194, Lon: 2.028993700000001

Elevation: 367

Station Type: Watson W8681

www.rtinez.cat

High Low Average
Temperature 77.2°F25.1°C 65.3°F18.5°C 70.0°F21.1°C
Dew Point 65.6°F18.7°C 52.4°F11.3°C 58.8°F14.9°C
Winds 16.8 mph 27.0 kmh 0.7 mph 1.1 kmh 5.0 mph SE8.0 kmh SE
Wind Gusts 25.1 mph40.4 kmh 2.2 mph3.5 kmh 9.0 mph14.5 kmh
Humidity 87% 49% 68%
Pressure 30.05 in1017.6 mb 29.83 in1010.2 mb -
Precipitation 0.00 in0.0 mm - -
Hour Temp Dew Point Humidity Winds Wind Gusts Pressure Precip Precip Rate Daily Precip Total
12:00 AM 65.8°F18.8°C 57.3°F14.1°C 74% 2.2 mph NE3.5 kmh NE 9.2 mph14.8 kmh 30.04 in1017.3 mb 0.00 in0.0 mm 0.00 in0.0 mm 0.00 in0.0 mm
12:15 AM 66.0°F18.9°C 57.5°F14.2°C 74% 4.5 mph NE7.2 kmh NE 8.3 mph13.4 kmh 30.04 in1017.3 mb 0.00 in0.0 mm 0.00 in0.0 mm 0.00 in0.0 mm
12:30 AM 66.2°F19.0°C 57.3°F14.1°C 73% 3.8 mph NE6.1 kmh NE 8.3 mph13.4 kmh 30.04 in1017.3 mb 0.00 in0.0 mm 0.00 in0.0 mm 0.00 in0.0 mm
12:45 AM 66.4°F19.1°C 57.5°F14.2°C 73% 3.1 mph NE5.0 kmh NE 9.2 mph14.8 kmh 30.05 in1017.6 mb 0.00 in0.0 mm 0.00 in0.0 mm 0.00 in0.0 mm
01:00 AM 66.4°F19.1°C 57.5°F14.2°C 73% 5.4 mph NE8.7 kmh NE 10.7 mph17.2 kmh 30.04 in1017.3 mb 0.00 in0.0 mm 0.00 in0.0 mm 0.00 in0.0 mm
01:15 AM 66.4°F19.1°C 57.5°F14.2°C 73% 6.9 mph ENE11.1 kmh ENE 9.8 mph15.8 kmh 30.04 in1017.3 mb 0.00 in0.0 mm 0.00 in0.0 mm 0.00 in0.0 mm
01:30 AM 66.2°F19.0°C 57.3°F14.1°C 73% 3.8 mph NE6.1 kmh NE 8.3 mph13.4 kmh 30.04 in1017.3 mb 0.00 in0.0 mm 0.00 in0.0 mm 0.00 in0.0 mm
01:45 AM 66.4°F19.1°C 57.9°F14.4°C 74% 4.5 mph E7.2 kmh E 7.6 mph12.2 kmh 30.04 in1017.3 mb 0.00 in0.0 mm 0.00 in0.0 mm 0.00 in0.0 mm
02:00 AM 66.4°F19.1°C 57.9°F14.4°C 74% 3.1 mph NE5.0 kmh NE 6.9 mph11.1 kmh 30.04 in1017.3 mb 0.00 in0.0 mm 0.00 in0.0 mm 0.00 in0.0 mm
02:15 AM 66.2°F19.0°C 57.7°F14.3°C 74% 2.2 mph ENE3.5 kmh ENE 8.3 mph13.4 kmh 30.03 in1016.9 mb 0.00 in0.0 mm 0.00 in0.0 mm 0.00 in0.0 mm
02:30 AM 65.8°F18.8°C 57.7°F14.3°C 75% 4.5 mph NE7.2 kmh NE 8.3 mph13.4 kmh 30.03 in1016.9 mb 0.00 in0.0 mm 0.00 in0.0 mm 0.00 in0.0 mm
02:45 AM 65.7°F18.7°C 57.9°F14.4°C 76% 3.8 mph NE6.1 kmh NE 8.3 mph13.4 kmh 30.02 in1016.6 mb 0.00 in0.0 mm 0.00 in0.0 mm 0.00 in0.0 mm
03:00 AM 65.7°F18.7°C 57.9°F14.4°C 76% 4.5 mph NE7.2 kmh NE 9.8 mph15.8 kmh 30.02 in1016.6 mb 0.00 in0.0 mm 0.00 in0.0 mm 0.00 in0.0 mm
03:15 AM 65.8°F18.8°C 58.1°F14.5°C 76% 3.8 mph NE6.1 kmh NE 7.6 mph12.2 kmh 30.02 in1016.6 mb 0.00 in0.0 mm 0.00 in0.0 mm 0.00 in0.0 mm
03:30 AM 65.8°F18.8°C 58.1°F14.5°C 76% 2.2 mph E3.5 kmh E 6.9 mph11.1 kmh 30.02 in1016.6 mb 0.00 in0.0 mm 0.00 in0.0 mm 0.00 in0.0 mm
03:45 AM 65.7°F18.7°C 57.9°F14.4°C 76% 3.1 mph NE5.0 kmh NE 8.3 mph13.4 kmh 30.02 in1016.6 mb 0.00 in0.0 mm 0.00 in0.0 mm 0.00 in0.0 mm
04:00 AM 65.5°F18.6°C 57.7°F14.3°C 76% 3.1 mph NE5.0 kmh NE 6.9 mph11.1 kmh 30.01 in1016.3 mb 0.00 in0.0 mm 0.00 in0.0 mm 0.00 in0.0 mm
04:15 AM 65.7°F18.7°C 57.5°F14.2°C 75% 3.1 mph E5.0 kmh E 8.3 mph13.4 kmh 30.02 in1016.6 mb 0.00 in0.0 mm 0.00 in0.0 mm 0.00 in0.0 mm
04:30 AM 65.5°F18.6°C 57.4°F14.1°C 75% 4.5 mph E7.2 kmh E 8.3 mph13.4 kmh 30.01 in1016.3 mb 0.00 in0.0 mm 0.00 in0.0 mm 0.00 in0.0 mm
04:45 AM 65.3°F18.5°C 57.6°F14.2°C 76% 3.8 mph NE6.1 kmh NE 6.9 mph11.1 kmh 30.00 in1015.9 mb 0.00 in0.0 mm 0.00 in0.0 mm 0.00 in0.0 mm
05:00 AM 65.3°F18.5°C 57.6°F14.2°C 76% 3.1 mph ENE5.0 kmh ENE 7.6 mph12.2 kmh 30.00 in1015.9 mb 0.00 in0.0 mm 0.00 in0.0 mm 0.00 in0.0 mm
05:15 AM 65.5°F18.6°C 57.7°F14.3°C 76% 3.8 mph N6.1 kmh N 7.6 mph12.2 kmh 30.00 in1015.9 mb 0.00 in0.0 mm 0.00 in0.0 mm 0.00 in0.0 mm
05:30 AM 65.7°F18.7°C 57.9°F14.4°C 76% 1.6 mph NE2.6 kmh NE 6.0 mph9.7 kmh 30.01 in1016.3 mb 0.00 in0.0 mm 0.00 in0.0 mm 0.00 in0.0 mm
05:45 AM 65.7°F18.7°C 57.5°F14.2°C 75% 1.6 mph ENE2.6 kmh ENE 6.9 mph11.1 kmh 30.01 in1016.3 mb 0.00 in0.0 mm 0.00 in0.0 mm 0.00 in0.0 mm
06:00 AM 65.7°F18.7°C 57.5°F14.2°C 75% 1.6 mph ESE2.6 kmh ESE 6.9 mph11.1 kmh 30.01 in1016.3 mb 0.00 in0.0 mm 0.00 in0.0 mm 0.00 in0.0 mm
06:15 AM 65.7°F18.7°C 57.5°F14.2°C 75% 3.1 mph E5.0 kmh E 6.0 mph9.7 kmh 30.01 in1016.3 mb 0.00 in0.0 mm 0.00 in0.0 mm 0.00 in0.0 mm
06:30 AM 65.5°F18.6°C 57.4°F14.1°C 75% 2.2 mph NE3.5 kmh NE 4.5 mph7.2 kmh 30.01 in1016.3 mb 0.00 in0.0 mm 0.00 in0.0 mm 0.00 in0.0 mm
06:45 AM 65.5°F18.6°C 57.4°F14.1°C 75% 0.7 mph NNE1.1 kmh NNE 6.0 mph9.7 kmh 30.00 in1015.9 mb 0.00 in0.0 mm 0.00 in0.0 mm 0.00 in0.0 mm
07:00 AM 65.5°F18.6°C 57.4°F14.1°C 75% 1.6 mph E2.6 kmh E 4.5 mph7.2 kmh 30.00 in1015.9 mb 0.00 in0.0 mm 0.00 in0.0 mm 0.00 in0.0 mm
07:15 AM 66.6°F19.2°C 58.0°F14.4°C 74% 0.7 mph E1.1 kmh E 6.0 mph9.7 kmh 30.01 in1016.3 mb 0.00 in0.0 mm 0.00 in0.0 mm 0.00 in0.0 mm
07:30 AM 66.6°F19.2°C 57.3°F14.1°C 72% 2.2 mph NE3.5 kmh NE 7.6 mph12.2 kmh 30.01 in1016.3 mb 0.00 in0.0 mm 0.00 in0.0 mm 0.00 in0.0 mm
07:45 AM 66.7°F19.3°C 57.4°F14.1°C 72% 3.8 mph ENE6.1 kmh ENE 8.3 mph13.4 kmh 30.01 in1016.3 mb 0.00 in0.0 mm 0.00 in0.0 mm 0.00 in0.0 mm
08:00 AM 66.9°F19.4°C 57.2°F14.0°C 71% 4.5 mph ENE7.2 kmh ENE 7.6 mph12.2 kmh 30.00 in1015.9 mb 0.00 in0.0 mm 0.00 in0.0 mm 0.00 in0.0 mm
08:15 AM 67.3°F19.6°C 57.6°F14.2°C 71% 4.5 mph E7.2 kmh E 8.3 mph13.4 kmh 30.01 in1016.3 mb 0.00 in0.0 mm 0.00 in0.0 mm 0.00 in0.0 mm
08:30 AM 68.2°F20.1°C 56.4°F13.6°C 66% 4.5 mph SE7.2 kmh SE 6.0 mph9.7 kmh 30.01 in1016.3 mb 0.00 in0.0 mm 0.00 in0.0 mm 0.00 in0.0 mm
08:45 AM 68.0°F20.0°C 55.8°F13.2°C 65% 2.2 mph SE3.5 kmh SE 6.0 mph9.7 kmh 30.02 in1016.6 mb 0.00 in0.0 mm 0.00 in0.0 mm 0.00 in0.0 mm
09:00 AM 69.3°F20.7°C 55.3°F12.9°C 61% 3.8 mph ENE6.1 kmh ENE 6.9 mph11.1 kmh 30.01 in1016.3 mb 0.00 in0.0 mm 0.00 in0.0 mm 0.00 in0.0 mm
09:15 AM 68.9°F20.5°C 54.0°F12.2°C 59% 3.8 mph E6.1 kmh E 7.6 mph12.2 kmh 30.01 in1016.3 mb 0.00 in0.0 mm 0.00 in0.0 mm 0.00 in0.0 mm
09:30 AM 69.6°F20.9°C 54.7°F12.6°C 59% 3.1 mph ENE5.0 kmh ENE 6.9 mph11.1 kmh 30.01 in1016.3 mb 0.00 in0.0 mm 0.00 in0.0 mm 0.00 in0.0 mm
09:45 AM 70.0°F21.1°C 53.1°F11.7°C 55% 3.1 mph SE5.0 kmh SE 6.0 mph9.7 kmh 30.02 in1016.6 mb 0.00 in0.0 mm 0.00 in0.0 mm 0.00 in0.0 mm
10:00 AM 69.3°F20.7°C 53.4°F11.9°C 57% 3.1 mph SE5.0 kmh SE 8.3 mph13.4 kmh 30.02 in1016.6 mb 0.00 in0.0 mm 0.00 in0.0 mm 0.00 in0.0 mm
10:15 AM 74.5°F23.6°C 57.8°F14.3°C 56% 3.8 mph ESE6.1 kmh ESE 8.3 mph13.4 kmh 30.02 in1016.6 mb 0.00 in0.0 mm 0.00 in0.0 mm 0.00 in0.0 mm
10:30 AM 71.4°F21.9°C 52.9°F11.6°C 52% 2.2 mph SSE3.5 kmh SSE 7.6 mph12.2 kmh 30.02 in1016.6 mb 0.00 in0.0 mm 0.00 in0.0 mm 0.00 in0.0 mm
10:45 AM 70.3°F21.3°C 52.4°F11.3°C 53% 2.2 mph SE3.5 kmh SE 9.8 mph15.8 kmh 30.02 in1016.6 mb 0.00 in0.0 mm 0.00 in0.0 mm 0.00 in0.0 mm
11:00 AM 71.4°F21.9°C 52.4°F11.3°C 51% 4.5 mph SE7.2 kmh SE 8.3 mph13.4 kmh 30.02 in1016.6 mb 0.00 in0.0 mm 0.00 in0.0 mm 0.00 in0.0 mm
11:15 AM 73.0°F22.8°C 52.8°F11.6°C 49% 3.8 mph E6.1 kmh E 6.9 mph11.1 kmh 30.02 in1016.6 mb 0.00 in0.0 mm 0.00 in0.0 mm 0.00 in0.0 mm
11:30 AM 72.7°F22.6°C 53.0°F11.7°C 50% 3.1 mph SE5.0 kmh SE 6.9 mph11.1 kmh 30.00 in1015.9 mb 0.00 in0.0 mm 0.00 in0.0 mm 0.00 in0.0 mm
11:45 AM 72.7°F22.6°C 53.5°F11.9°C 51% 3.8 mph SE6.1 kmh SE 10.7 mph17.2 kmh 30.00 in1015.9 mb 0.00 in0.0 mm 0.00 in0.0 mm 0.00 in0.0 mm
12:00 PM 73.4°F23.0°C 55.3°F12.9°C 53% 0.7 mph ESE1.1 kmh ESE 6.9 mph11.1 kmh 29.99 in1015.6 mb 0.00 in0.0 mm 0.00 in0.0 mm 0.00 in0.0 mm
12:15 PM 75.6°F24.2°C 56.2°F13.4°C 51% 4.5 mph SSE7.2 kmh SSE 13.6 mph21.9 kmh 29.98 in1015.2 mb 0.00 in0.0 mm 0.00 in0.0 mm 0.00 in0.0 mm
12:30 PM 74.3°F23.5°C 56.1°F13.4°C 53% 3.1 mph ESE5.0 kmh ESE 9.8 mph15.8 kmh 29.98 in1015.2 mb 0.00 in0.0 mm 0.00 in0.0 mm 0.00 in0.0 mm
12:45 PM 74.1°F23.4°C 55.9°F13.3°C 53% 5.4 mph SE8.7 kmh SE 11.4 mph18.3 kmh 29.97 in1014.9 mb 0.00 in0.0 mm 0.00 in0.0 mm 0.00 in0.0 mm
01:00 PM 74.1°F23.4°C 55.9°F13.3°C 53% 5.4 mph S8.7 kmh S 12.1 mph19.5 kmh 29.97 in1014.9 mb 0.00 in0.0 mm 0.00 in0.0 mm 0.00 in0.0 mm
01:15 PM 73.9°F23.3°C 56.3°F13.5°C 54% 4.5 mph S7.2 kmh S 7.6 mph12.2 kmh 29.96 in1014.6 mb 0.00 in0.0 mm 0.00 in0.0 mm 0.00 in0.0 mm
01:30 PM 72.9°F22.7°C 55.8°F13.2°C 55% 7.6 mph SSE12.2 kmh SSE 13.0 mph20.9 kmh 29.95 in1014.2 mb 0.00 in0.0 mm 0.00 in0.0 mm 0.00 in0.0 mm
01:45 PM 74.7°F23.7°C 56.9°F13.8°C 54% 6.0 mph S9.7 kmh S 8.3 mph13.4 kmh 29.94 in1013.9 mb 0.00 in0.0 mm 0.00 in0.0 mm 0.00 in0.0 mm
02:00 PM 73.9°F23.3°C 56.3°F13.5°C 54% 3.8 mph SE6.1 kmh SE 9.8 mph15.8 kmh 29.93 in1013.5 mb 0.00 in0.0 mm 0.00 in0.0 mm 0.00 in0.0 mm
02:15 PM 73.6°F23.1°C 56.4°F13.6°C 55% 5.4 mph ESE8.7 kmh ESE 12.1 mph19.5 kmh 29.92 in1013.2 mb 0.00 in0.0 mm 0.00 in0.0 mm 0.00 in0.0 mm
02:30 PM 74.1°F23.4°C 57.0°F13.9°C 55% 6.9 mph SE11.1 kmh SE 13.0 mph20.9 kmh 29.92 in1013.2 mb 0.00 in0.0 mm 0.00 in0.0 mm 0.00 in0.0 mm
02:45 PM 73.6°F23.1°C 56.4°F13.6°C 55% 4.5 mph SE7.2 kmh SE 12.1 mph19.5 kmh 29.92 in1013.2 mb 0.00 in0.0 mm 0.00 in0.0 mm 0.00 in0.0 mm
03:00 PM 77.0°F25.0°C 57.5°F14.2°C 51% 6.9 mph SE11.1 kmh SE 9.8 mph15.8 kmh 29.91 in1012.9 mb 0.00 in0.0 mm 0.00 in0.0 mm 0.00 in0.0 mm
03:15 PM 77.2°F25.1°C 58.2°F14.6°C 52% 6.9 mph SE11.1 kmh SE 12.1 mph19.5 kmh 29.91 in1012.9 mb 0.00 in0.0 mm 0.00 in0.0 mm 0.00 in0.0 mm
03:30 PM 76.5°F24.7°C 58.1°F14.5°C 53% 9.8 mph ESE15.8 kmh ESE 14.5 mph23.3 kmh 29.90 in1012.5 mb 0.00 in0.0 mm 0.00 in0.0 mm 0.00 in0.0 mm
03:45 PM 74.8°F23.8°C 58.1°F14.5°C 56% 10.7 mph SE17.2 kmh SE 14.5 mph23.3 kmh 29.90 in1012.5 mb 0.00 in0.0 mm 0.00 in0.0 mm 0.00 in0.0 mm
04:00 PM 77.0°F25.0°C 59.1°F15.1°C 54% 4.5 mph SSW7.2 kmh SSW 13.6 mph21.9 kmh 29.90 in1012.5 mb 0.00 in0.0 mm 0.00 in0.0 mm 0.00 in0.0 mm
04:15 PM 74.7°F23.7°C 58.9°F14.9°C 58% 0.7 mph SSE1.1 kmh SSE 15.2 mph24.5 kmh 29.89 in1012.2 mb 0.00 in0.0 mm 0.00 in0.0 mm 0.00 in0.0 mm
04:30 PM 73.6°F23.1°C 59.8°F15.4°C 62% 7.6 mph SSE12.2 kmh SSE 16.8 mph27.0 kmh 29.89 in1012.2 mb 0.00 in0.0 mm 0.00 in0.0 mm 0.00 in0.0 mm
04:45 PM 73.9°F23.3°C 60.1°F15.6°C 62% 4.5 mph SSW7.2 kmh SSW 10.7 mph17.2 kmh 29.88 in1011.9 mb 0.00 in0.0 mm 0.00 in0.0 mm 0.00 in0.0 mm
05:00 PM 74.1°F23.4°C 61.2°F16.2°C 64% 9.2 mph S14.8 kmh S 13.0 mph20.9 kmh 29.88 in1011.9 mb 0.00 in0.0 mm 0.00 in0.0 mm 0.00 in0.0 mm
05:15 PM 73.6°F23.1°C 61.1°F16.2°C 65% 5.4 mph SSW8.7 kmh SSW 15.2 mph24.5 kmh 29.88 in1011.9 mb 0.00 in0.0 mm 0.00 in0.0 mm 0.00 in0.0 mm
05:30 PM 73.4°F23.0°C 61.8°F16.6°C 67% 12.1 mph S19.5 kmh S 14.5 mph23.3 kmh 29.88 in1011.9 mb 0.00 in0.0 mm 0.00 in0.0 mm 0.00 in0.0 mm
05:45 PM 74.1°F23.4°C 61.6°F16.4°C 65% 9.8 mph SSW15.8 kmh SSW 13.0 mph20.9 kmh 29.88 in1011.9 mb 0.00 in0.0 mm 0.00 in0.0 mm 0.00 in0.0 mm
06:00 PM 73.8°F23.2°C 62.2°F16.8°C 67% 6.0 mph S9.7 kmh S 15.9 mph25.6 kmh 29.88 in1011.9 mb 0.00 in0.0 mm 0.00 in0.0 mm 0.00 in0.0 mm
06:15 PM 73.0°F22.8°C 62.3°F16.8°C 69% 11.4 mph SSW18.3 kmh SSW 14.5 mph23.3 kmh 29.88 in1011.9 mb 0.00 in0.0 mm 0.00 in0.0 mm 0.00 in0.0 mm
06:30 PM 72.9°F22.7°C 62.5°F16.9°C 70% 8.3 mph WSW13.4 kmh WSW 15.9 mph25.6 kmh 29.87 in1011.5 mb 0.00 in0.0 mm 0.00 in0.0 mm 0.00 in0.0 mm
06:45 PM 72.3°F22.4°C 62.4°F16.9°C 71% 14.5 mph NW23.3 kmh NW 23.5 mph37.8 kmh 29.88 in1011.9 mb 0.00 in0.0 mm 0.00 in0.0 mm 0.00 in0.0 mm
07:00 PM 71.6°F22.0°C 62.5°F16.9°C 73% 16.8 mph W27.0 kmh W 25.1 mph40.4 kmh 29.88 in1011.9 mb 0.00 in0.0 mm 0.00 in0.0 mm 0.00 in0.0 mm
07:15 PM 71.4°F21.9°C 63.5°F17.5°C 76% 14.5 mph W23.3 kmh W 23.5 mph37.8 kmh 29.89 in1012.2 mb 0.00 in0.0 mm 0.00 in0.0 mm 0.00 in0.0 mm
07:30 PM 71.2°F21.8°C 63.7°F17.6°C 77% 13.6 mph W21.9 kmh W 24.4 mph39.3 kmh 29.88 in1011.9 mb 0.00 in0.0 mm 0.00 in0.0 mm 0.00 in0.0 mm
07:45 PM 70.9°F21.6°C 64.1°F17.8°C 79% 9.8 mph WSW15.8 kmh WSW 16.8 mph27.0 kmh 29.88 in1011.9 mb 0.00 in0.0 mm 0.00 in0.0 mm 0.00 in0.0 mm
08:00 PM 70.7°F21.5°C 63.9°F17.7°C 79% 9.8 mph WSW15.8 kmh WSW 15.2 mph24.5 kmh 29.88 in1011.9 mb 0.00 in0.0 mm 0.00 in0.0 mm 0.00 in0.0 mm
08:15 PM 70.7°F21.5°C 64.3°F17.9°C 80% 4.5 mph W7.2 kmh W 9.2 mph14.8 kmh 29.88 in1011.9 mb 0.00 in0.0 mm 0.00 in0.0 mm 0.00 in0.0 mm
08:30 PM 70.7°F21.5°C 63.9°F17.7°C 79% 5.4 mph WSW8.7 kmh WSW 8.3 mph13.4 kmh 29.89 in1012.2 mb 0.00 in0.0 mm 0.00 in0.0 mm 0.00 in0.0 mm
08:45 PM 70.7°F21.5°C 64.3°F17.9°C 80% 0.7 mph W1.1 kmh W 3.8 mph6.1 kmh 29.88 in1011.9 mb 0.00 in0.0 mm 0.00 in0.0 mm 0.00 in0.0 mm
09:00 PM 70.7°F21.5°C 64.3°F17.9°C 80% 0.7 mph SSW1.1 kmh SSW 3.1 mph5.0 kmh 29.89 in1012.2 mb 0.00 in0.0 mm 0.00 in0.0 mm 0.00 in0.0 mm
09:15 PM 70.5°F21.4°C 64.4°F18.0°C 81% 2.2 mph S3.5 kmh S 4.5 mph7.2 kmh 29.88 in1011.9 mb 0.00 in0.0 mm 0.00 in0.0 mm 0.00 in0.0 mm
09:30 PM 70.5°F21.4°C 64.4°F18.0°C 81% 1.6 mph SSW2.6 kmh SSW 3.1 mph5.0 kmh 29.89 in1012.2 mb 0.00 in0.0 mm 0.00 in0.0 mm 0.00 in0.0 mm
09:45 PM 70.5°F21.4°C 64.4°F18.0°C 81% 0.7 mph SSW1.1 kmh SSW 3.8 mph6.1 kmh 29.88 in1011.9 mb 0.00 in0.0 mm 0.00 in0.0 mm 0.00 in0.0 mm
10:00 PM 70.3°F21.3°C 64.3°F17.9°C 81% 0.7 mph WSW1.1 kmh WSW 3.1 mph5.0 kmh 29.89 in1012.2 mb 0.00 in0.0 mm 0.00 in0.0 mm 0.00 in0.0 mm
10:15 PM 70.0°F21.1°C 63.9°F17.7°C 81% 0.7 mph SE1.1 kmh SE 2.2 mph3.5 kmh 29.87 in1011.5 mb 0.00 in0.0 mm 0.00 in0.0 mm 0.00 in0.0 mm
10:30 PM 69.8°F21.0°C 64.1°F17.8°C 82% 2.2 mph E3.5 kmh E 3.8 mph6.1 kmh 29.87 in1011.5 mb 0.00 in0.0 mm 0.00 in0.0 mm 0.00 in0.0 mm
10:45 PM 69.6°F20.9°C 64.6°F18.1°C 84% 2.2 mph E3.5 kmh E 5.4 mph8.7 kmh 29.86 in1011.2 mb 0.00 in0.0 mm 0.00 in0.0 mm 0.00 in0.0 mm
11:00 PM 69.4°F20.8°C 65.1°F18.4°C 86% 3.8 mph N6.1 kmh N 6.9 mph11.1 kmh 29.86 in1011.2 mb 0.00 in0.0 mm 0.00 in0.0 mm 0.00 in0.0 mm
11:15 PM 69.6°F20.9°C 65.3°F18.5°C 86% 0.7 mph NE1.1 kmh NE 6.0 mph9.7 kmh 29.85 in1010.8 mb 0.00 in0.0 mm 0.00 in0.0 mm 0.00 in0.0 mm
11:30 PM 69.6°F20.9°C 65.3°F18.5°C 86% 2.2 mph ENE3.5 kmh ENE 6.0 mph9.7 kmh 29.84 in1010.5 mb 0.00 in0.0 mm 0.00 in0.0 mm 0.00 in0.0 mm
11:45 PM 69.6°F20.9°C 65.6°F18.7°C 87% 3.8 mph N6.1 kmh N 6.0 mph9.7 kmh 29.83 in1010.2 mb 0.00 in0.0 mm 0.00 in0.0 mm 0.00 in0.0 mm